»·PEaware :: N4A KLAS-KAZC

N4A :: KLAS-KAZC

FLIGHT INFORMATION

Flight Status: Arrived
Operator: Privately registered:
United States
More flights under this callsign
Pilot: Alec D. (17934)
Aircraft: CESSNA 510 CITATION MUSTANG
(C510)
More flights by this aircraft type
Origin: KLAS McCarran Intl
United States
Destination: KAZC Colorado City Mun
United States
More flights between these airports :: More routes between these airports
Route: +TRALR9 TRALR JITKA
File this flight plan on PilotEdge
Remarks: LAS V394 MMM V235 JITKA
Altitude:
(Current/Filed)
15,000ft
Speed:
(Current/Filed)
310kts
Departed: 04-Jul-18 09:11 AM
Arrived: 04-Jul-18 09:47 AM
Distance/Time
Traveled:
116nm/0:36
Distance/Time
To Go:
Arrived

Flight Plot

Page will automatically refresh every two minutes.

Flight plan parsing failed; only flown route is shown


Map Options




Map Legend


Flown Route
Filed Route
Departure Airport
Arrival Airport
Navaid (VOR, NDB)
Fix

Horizontal Profiles

Position Reports

Time Latitude Longitude Heading Altitude Ground
Speed
04-Jul-18 08:40 36.081605 -115.171375 89 2183ft 0kts
04-Jul-18 08:41 36.081605 -115.171375 89 2183ft 0kts
04-Jul-18 08:42 36.081605 -115.171375 89 2183ft 0kts
04-Jul-18 08:43 36.081605 -115.171375 89 2183ft 0kts
04-Jul-18 08:44 36.081605 -115.171375 89 2183ft 0kts
04-Jul-18 08:45 36.081605 -115.171375 89 2183ft 0kts
04-Jul-18 08:46 36.081605 -115.171375 89 2183ft 0kts
04-Jul-18 08:47 36.081605 -115.171375 89 2183ft 0kts
04-Jul-18 08:48 36.081605 -115.171375 89 2183ft 0kts
04-Jul-18 08:49 36.081605 -115.171375 89 2183ft 0kts
04-Jul-18 08:50 36.081605 -115.171375 89 2183ft 0kts
04-Jul-18 08:51 36.081605 -115.171375 89 2183ft 0kts
04-Jul-18 08:52 36.081605 -115.171375 89 2183ft 0kts
04-Jul-18 08:53 36.081605 -115.171375 89 2183ft 0kts
04-Jul-18 08:54 36.081605 -115.171375 89 2183ft 0kts
04-Jul-18 08:55 36.081605 -115.171375 89 2183ft 0kts
04-Jul-18 08:56 36.081605 -115.171375 89 2183ft 0kts
04-Jul-18 08:57 36.081605 -115.171375 89 2183ft 0kts
04-Jul-18 08:58 36.081605 -115.171375 89 2183ft 0kts
04-Jul-18 08:59 36.081605 -115.171375 89 2183ft 0kts
04-Jul-18 09:00 36.081605 -115.171375 89 2183ft 0kts
04-Jul-18 09:01 36.081605 -115.171375 89 2183ft 0kts
04-Jul-18 09:02 36.081605 -115.171375 89 2183ft 0kts
04-Jul-18 09:03 36.081605 -115.171375 89 2183ft 0kts
04-Jul-18 09:04 36.081564 -115.171208 103 2183ft 4kts
04-Jul-18 09:05 36.080475 -115.169664 206 2183ft 12kts
04-Jul-18 09:06 36.077991 -115.170373 123 2183ft 7kts
04-Jul-18 09:07 36.077866 -115.169810 90 2183ft 0kts
04-Jul-18 09:08 36.077866 -115.169809 90 2183ft 0kts
04-Jul-18 09:09 36.077866 -115.169808 90 2183ft 0kts
04-Jul-18 09:10 36.077866 -115.169807 90 2183ft 0kts
04-Jul-18 09:11 36.082025 -115.166380 25 2183ft 76kts
04-Jul-18 09:12 36.113384 -115.147396 26 3191ft 157kts
04-Jul-18 09:13 36.139469 -115.103650 82 5182ft 177kts
04-Jul-18 09:14 36.145080 -115.041661 90 7380ft 189kts
04-Jul-18 09:15 36.149428 -114.973197 89 9314ft 203kts
04-Jul-18 09:16 36.154118 -114.902242 90 11287ft 209kts
04-Jul-18 09:17 36.158894 -114.829253 91 13232ft 216kts
04-Jul-18 09:18 36.175189 -114.755024 74 14915ft 238kts
04-Jul-18 09:19 36.190412 -114.664253 91 15014ft 294kts
04-Jul-18 09:20 36.191251 -114.562239 93 15010ft 296kts
04-Jul-18 09:21 36.191756 -114.460248 92 15021ft 296kts
04-Jul-18 09:22 36.192644 -114.358264 92 15027ft 297kts
04-Jul-18 09:24 36.198017 -114.256521 69 15031ft 302kts
04-Jul-18 09:25 36.262595 -114.189172 30 14902ft 310kts
04-Jul-18 09:26 36.337728 -114.137957 29 14677ft 308kts
04-Jul-18 09:27 36.412630 -114.085529 30 14680ft 309kts
04-Jul-18 09:28 36.486818 -114.032034 31 14685ft 309kts
04-Jul-18 09:29 36.561170 -113.977877 31 14689ft 309kts
04-Jul-18 09:30 36.635381 -113.923727 31 14705ft 310kts
04-Jul-18 09:31 36.709765 -113.869219 31 14716ft 310kts
04-Jul-18 09:32 36.784410 -113.814317 31 14716ft 310kts
04-Jul-18 09:33 36.859011 -113.759436 31 14717ft 311kts
04-Jul-18 09:34 36.934260 -113.703821 31 13880ft 317kts
04-Jul-18 09:35 37.009942 -113.647530 31 12382ft 317kts
04-Jul-18 09:36 37.081437 -113.586977 56 10880ft 304kts
04-Jul-18 09:37 37.082501 -113.491018 110 9647ft 273kts
04-Jul-18 09:38 37.058595 -113.403521 111 9135ft 252kts
04-Jul-18 09:39 37.038858 -113.327909 111 9259ft 206kts
04-Jul-18 09:40 37.022409 -113.263268 110 8589ft 191kts
04-Jul-18 09:41 37.007036 -113.201879 110 7712ft 179kts
04-Jul-18 09:42 36.992753 -113.144688 110 7013ft 163kts
04-Jul-18 09:43 36.979572 -113.093534 116 6533ft 142kts
04-Jul-18 09:44 36.958472 -113.053026 127 6227ft 135kts
04-Jul-18 09:45 36.937575 -113.013342 124 6147ft 134kts
04-Jul-18 09:46 36.935669 -112.975491 13 5682ft 132kts
04-Jul-18 09:47 36.954738 -113.004444 299 4928ft 107kts
04-Jul-18 09:48 36.959845 -113.014395 122 4876ft 10kts
04-Jul-18 09:49 36.958125 -113.010471 31 4876ft 11kts
04-Jul-18 09:50 36.960482 -113.010176 261 4876ft 10kts
04-Jul-18 09:51 36.960380 -113.010281 207 4876ft 0kts

Navigation Log

Ident Type
Flight plan parsing failed, navigation log unavailable